LFCR 181630Z AUTO 33011KT 9999 -RA FEW035/// SCT054/// OVC088/// //////CB 18/15 Q1017 BECMG SCT030

ElémentsDécodage
LFCR Station météo située sur l'aérodrome de RODEZ Marcillac
181630Z émis le 18 du mois à 16h30 UTC
AUTO Bulletin édité par un automate
33011KT vent du 330°, 11 noeuds
9999 visibilité horizontale supérieure à 10 Km
-RA faible pluie
FEW035/// nuages rares (1/8 à 2/8) à 3500 pieds
 type de nuage non observable
SCT054/// nuages épars (3/8 à 4/8) à 5400 pieds
 type de nuage non observable
OVC088/// couverture nuageuse totale (8/8) à 8800 pieds
 type de nuage non observable
//////CB nébulosité (type et hauteur) non disponible
 présence de cumulonimbus
18/15 température 18°C, point de rosée 15°C
 soit une humidité relative de 83%
Q1017 la pression au niveau de la mer (QNH) est de 1017 hPa
BECMG fluctuation du temps prévue
SCT030 nuages épars (3/8 à 4/8) à 3000 pieds